sensor_id;sensor_type;location;lat;lon;timestamp;P1;durP1;ratioP1;P2;durP2;ratioP2
30133;SDS011;16946;49.984;10.672;2022-12-29T00:00:28;2.90;;;2.20;;
30133;SDS011;16946;49.984;10.672;2022-12-29T00:01:01;3.00;;;2.20;;
30133;SDS011;16946;49.984;10.672;2022-12-29T00:01:32;2.38;;;2.13;;
30133;SDS011;16946;49.984;10.672;2022-12-29T00:02:03;2.83;;;2.03;;
30133;SDS011;16946;49.984;10.672;2022-12-29T00:02:33;2.33;;;2.13;;
30133;SDS011;16946;49.984;10.672;2022-12-29T00:03:04;2.90;;;2.13;;
30133;SDS011;16946;49.984;10.672;2022-12-29T00:03:34;2.23;;;2.00;;
30133;SDS011;16946;49.984;10.672;2022-12-29T00:04:05;3.27;;;2.33;;
30133;SDS011;16946;49.984;10.672;2022-12-29T00:04:36;2.45;;;2.22;;
30133;SDS011;16946;49.984;10.672;2022-12-29T00:05:07;2.83;;;1.90;;
30133;SDS011;16946;49.984;10.672;2022-12-29T00:05:38;2.90;;;2.33;;
30133;SDS011;16946;49.984;10.672;2022-12-29T00:06:08;2.57;;;2.33;;
30133;SDS011;16946;49.984;10.672;2022-12-29T00:06:39;2.63;;;2.00;;
30133;SDS011;16946;49.984;10.672;2022-12-29T00:07:09;3.10;;;2.50;;
30133;SDS011;16946;49.984;10.672;2022-12-29T00:07:40;3.03;;;2.37;;
30133;SDS011;16946;49.984;10.672;2022-12-29T00:08:11;3.10;;;2.07;;
30133;SDS011;16946;49.984;10.672;2022-12-29T00:08:41;2.77;;;2.20;;
30133;SDS011;16946;49.984;10.672;2022-12-29T00:09:12;2.00;;;1.80;;
30133;SDS011;16946;49.984;10.672;2022-12-29T00:09:43;2.97;;;2.35;;
30133;SDS011;16946;49.984;10.672;2022-12-29T00:10:14;2.53;;;2.30;;
30133;SDS011;16946;49.984;10.672;2022-12-29T00:10:44;3.70;;;2.20;;
30133;SDS011;16946;49.984;10.672;2022-12-29T00:11:16;2.33;;;2.13;;
30133;SDS011;16946;49.984;10.672;2022-12-29T00:11:48;2.78;;;2.13;;
30133;SDS011;16946;49.984;10.672;2022-12-29T00:12:20;3.15;;;2.10;;
30133;SDS011;16946;49.984;10.672;2022-12-29T00:12:50;3.60;;;2.13;;
30133;SDS011;16946;49.984;10.672;2022-12-29T00:13:39;3.83;;;2.30;;
30133;SDS011;16946;49.984;10.672;2022-12-29T00:14:29;2.20;;;2.00;;
30133;SDS011;16946;49.984;10.672;2022-12-29T00:15:19;3.97;;;2.20;;
30133;SDS011;16946;49.984;10.672;2022-12-29T00:16:07;3.28;;;2.15;;
30133;SDS011;16946;49.984;10.672;2022-12-29T00:16:40;2.77;;;2.40;;
30133;SDS011;16946;49.984;10.672;2022-12-29T00:17:12;2.90;;;2.13;;
30133;SDS011;16946;49.984;10.672;2022-12-29T00:17:43;3.58;;;2.40;;
30133;SDS011;16946;49.984;10.672;2022-12-29T00:18:14;3.27;;;2.33;;
30133;SDS011;16946;49.984;10.672;2022-12-29T00:18:44;2.70;;;2.43;;
30133;SDS011;16946;49.984;10.672;2022-12-29T00:19:15;3.40;;;2.50;;
30133;SDS011;16946;49.984;10.672;2022-12-29T00:20:04;2.60;;;2.20;;
30133;SDS011;16946;49.984;10.672;2022-12-29T00:20:54;3.35;;;2.40;;
30133;SDS011;16946;49.984;10.672;2022-12-29T00:21:43;3.75;;;2.60;;
30133;SDS011;16946;49.984;10.672;2022-12-29T00:22:43;2.92;;;2.30;;
30133;SDS011;16946;49.984;10.672;2022-12-29T00:23:32;3.15;;;2.20;;
30133;SDS011;16946;49.984;10.672;2022-12-29T00:24:22;2.38;;;1.98;;
30133;SDS011;16946;49.984;10.672;2022-12-29T00:24:55;2.58;;;2.33;;
30133;SDS011;16946;49.984;10.672;2022-12-29T00:25:35;3.90;;;2.40;;
30133;SDS011;16946;49.984;10.672;2022-12-29T00:26:24;2.67;;;2.30;;
30133;SDS011;16946;49.984;10.672;2022-12-29T00:27:14;3.70;;;2.20;;
30133;SDS011;16946;49.984;10.672;2022-12-29T00:28:04;3.30;;;2.30;;
30133;SDS011;16946;49.984;10.672;2022-12-29T00:28:53;2.50;;;2.30;;
30133;SDS011;16946;49.984;10.672;2022-12-29T00:29:42;2.42;;;2.22;;
30133;SDS011;16946;49.984;10.672;2022-12-29T00:30:31;3.35;;;2.03;;
30133;SDS011;16946;49.984;10.672;2022-12-29T00:31:20;3.20;;;2.40;;
30133;SDS011;16946;49.984;10.672;2022-12-29T00:32:10;2.90;;;2.60;;
30133;SDS011;16946;49.984;10.672;2022-12-29T00:32:59;4.05;;;2.50;;
30133;SDS011;16946;49.984;10.672;2022-12-29T00:33:48;3.40;;;2.50;;
30133;SDS011;16946;49.984;10.672;2022-12-29T00:34:37;3.22;;;2.20;;
30133;SDS011;16946;49.984;10.672;2022-12-29T00:35:31;3.20;;;2.50;;
30133;SDS011;16946;49.984;10.672;2022-12-29T00:36:57;3.08;;;2.33;;
30133;SDS011;16946;49.984;10.672;2022-12-29T00:37:27;2.70;;;2.23;;
30133;SDS011;16946;49.984;10.672;2022-12-29T00:38:18;3.40;;;2.10;;
30133;SDS011;16946;49.984;10.672;2022-12-29T00:39:09;3.17;;;2.63;;
30133;SDS011;16946;49.984;10.672;2022-12-29T00:40:01;3.08;;;2.47;;
30133;SDS011;16946;49.984;10.672;2022-12-29T00:40:51;3.28;;;2.28;;
30133;SDS011;16946;49.984;10.672;2022-12-29T00:41:40;2.58;;;2.10;;
30133;SDS011;16946;49.984;10.672;2022-12-29T00:42:29;3.13;;;2.38;;
30133;SDS011;16946;49.984;10.672;2022-12-29T00:43:18;2.83;;;2.30;;
30133;SDS011;16946;49.984;10.672;2022-12-29T00:44:08;2.95;;;2.45;;
30133;SDS011;16946;49.984;10.672;2022-12-29T00:44:40;3.42;;;2.70;;
30133;SDS011;16946;49.984;10.672;2022-12-29T00:45:11;3.90;;;2.63;;
30133;SDS011;16946;49.984;10.672;2022-12-29T00:45:41;3.83;;;2.40;;
30133;SDS011;16946;49.984;10.672;2022-12-29T00:46:12;2.47;;;2.27;;
30133;SDS011;16946;49.984;10.672;2022-12-29T00:46:42;2.83;;;2.40;;
30133;SDS011;16946;49.984;10.672;2022-12-29T00:47:13;4.32;;;2.33;;
30133;SDS011;16946;49.984;10.672;2022-12-29T00:47:44;3.07;;;2.13;;
30133;SDS011;16946;49.984;10.672;2022-12-29T00:48:14;3.00;;;2.60;;
30133;SDS011;16946;49.984;10.672;2022-12-29T00:48:45;2.80;;;2.27;;
30133;SDS011;16946;49.984;10.672;2022-12-29T00:49:34;2.63;;;2.20;;
30133;SDS011;16946;49.984;10.672;2022-12-29T00:50:05;2.43;;;2.20;;
30133;SDS011;16946;49.984;10.672;2022-12-29T00:50:35;3.50;;;2.47;;
30133;SDS011;16946;49.984;10.672;2022-12-29T00:51:06;4.27;;;2.50;;
30133;SDS011;16946;49.984;10.672;2022-12-29T00:51:37;3.00;;;2.63;;
30133;SDS011;16946;49.984;10.672;2022-12-29T00:52:09;3.20;;;2.40;;
30133;SDS011;16946;49.984;10.672;2022-12-29T00:52:41;3.80;;;2.30;;
30133;SDS011;16946;49.984;10.672;2022-12-29T00:53:11;2.87;;;2.13;;
30133;SDS011;16946;49.984;10.672;2022-12-29T00:53:42;4.13;;;2.50;;
30133;SDS011;16946;49.984;10.672;2022-12-29T00:54:13;2.73;;;2.33;;
30133;SDS011;16946;49.984;10.672;2022-12-29T00:54:44;2.58;;;2.38;;
30133;SDS011;16946;49.984;10.672;2022-12-29T00:55:14;2.70;;;2.10;;
30133;SDS011;16946;49.984;10.672;2022-12-29T00:55:45;2.47;;;2.03;;
30133;SDS011;16946;49.984;10.672;2022-12-29T00:56:15;3.87;;;2.20;;
30133;SDS011;16946;49.984;10.672;2022-12-29T00:56:49;3.00;;;2.30;;
30133;SDS011;16946;49.984;10.672;2022-12-29T00:57:21;3.45;;;2.30;;
30133;SDS011;16946;49.984;10.672;2022-12-29T00:57:51;3.13;;;2.80;;
30133;SDS011;16946;49.984;10.672;2022-12-29T00:58:22;2.50;;;2.30;;
30133;SDS011;16946;49.984;10.672;2022-12-29T00:58:53;2.77;;;2.20;;
30133;SDS011;16946;49.984;10.672;2022-12-29T00:59:23;3.47;;;2.70;;
30133;SDS011;16946;49.984;10.672;2022-12-29T00:59:54;2.77;;;2.40;;
30133;SDS011;16946;49.984;10.672;2022-12-29T01:00:24;3.23;;;2.60;;
30133;SDS011;16946;49.984;10.672;2022-12-29T01:01:04;3.07;;;2.03;;
30133;SDS011;16946;49.984;10.672;2022-12-29T01:01:36;3.53;;;2.25;;
30133;SDS011;16946;49.984;10.672;2022-12-29T01:02:08;2.72;;;2.20;;
30133;SDS011;16946;49.984;10.672;2022-12-29T01:02:40;3.15;;;2.60;;
30133;SDS011;16946;49.984;10.672;2022-12-29T01:03:10;2.37;;;2.17;;
30133;SDS011;16946;49.984;10.672;2022-12-29T01:03:41;2.67;;;2.43;;
30133;SDS011;16946;49.984;10.672;2022-12-29T01:04:11;2.40;;;2.20;;
30133;SDS011;16946;49.984;10.672;2022-12-29T01:04:42;4.05;;;2.40;;
30133;SDS011;16946;49.984;10.672;2022-12-29T01:05:13;3.87;;;2.90;;
30133;SDS011;16946;49.984;10.672;2022-12-29T01:05:44;2.70;;;2.10;;
30133;SDS011;16946;49.984;10.672;2022-12-29T01:06:14;2.60;;;2.40;;
30133;SDS011;16946;49.984;10.672;2022-12-29T01:06:45;2.67;;;2.30;;
30133;SDS011;16946;49.984;10.672;2022-12-29T01:07:16;3.77;;;2.60;;
30133;SDS011;16946;49.984;10.672;2022-12-29T01:07:46;2.73;;;2.43;;
30133;SDS011;16946;49.984;10.672;2022-12-29T01:08:17;3.33;;;2.40;;
30133;SDS011;16946;49.984;10.672;2022-12-29T01:08:47;2.90;;;2.60;;
30133;SDS011;16946;49.984;10.672;2022-12-29T01:09:38;2.78;;;2.50;;
30133;SDS011;16946;49.984;10.672;2022-12-29T01:10:27;2.45;;;2.20;;
30133;SDS011;16946;49.984;10.672;2022-12-29T01:11:38;2.70;;;2.28;;
30133;SDS011;16946;49.984;10.672;2022-12-29T01:12:09;3.13;;;2.42;;
30133;SDS011;16946;49.984;10.672;2022-12-29T01:12:40;2.58;;;2.38;;
30133;SDS011;16946;49.984;10.672;2022-12-29T01:13:11;2.70;;;2.30;;
30133;SDS011;16946;49.984;10.672;2022-12-29T01:13:41;2.73;;;2.07;;
30133;SDS011;16946;49.984;10.672;2022-12-29T01:14:13;2.47;;;2.28;;
30133;SDS011;16946;49.984;10.672;2022-12-29T01:14:44;2.90;;;2.60;;
30133;SDS011;16946;49.984;10.672;2022-12-29T01:15:14;3.90;;;2.57;;
30133;SDS011;16946;49.984;10.672;2022-12-29T01:15:51;2.50;;;2.30;;
30133;SDS011;16946;49.984;10.672;2022-12-29T01:16:22;2.85;;;2.28;;
30133;SDS011;16946;49.984;10.672;2022-12-29T01:16:53;2.97;;;2.30;;
30133;SDS011;16946;49.984;10.672;2022-12-29T01:17:24;3.50;;;2.80;;
30133;SDS011;16946;49.984;10.672;2022-12-29T01:17:55;2.53;;;2.30;;
30133;SDS011;16946;49.984;10.672;2022-12-29T01:18:25;3.97;;;2.50;;
30133;SDS011;16946;49.984;10.672;2022-12-29T01:18:56;3.90;;;2.70;;
30133;SDS011;16946;49.984;10.672;2022-12-29T01:19:27;2.97;;;2.67;;
30133;SDS011;16946;49.984;10.672;2022-12-29T01:19:57;2.97;;;2.23;;
30133;SDS011;16946;49.984;10.672;2022-12-29T01:20:28;3.20;;;2.67;;
30133;SDS011;16946;49.984;10.672;2022-12-29T01:21:02;2.87;;;2.43;;
30133;SDS011;16946;49.984;10.672;2022-12-29T01:21:35;2.95;;;2.65;;
30133;SDS011;16946;49.984;10.672;2022-12-29T01:22:05;2.53;;;2.33;;
30133;SDS011;16946;49.984;10.672;2022-12-29T01:22:36;2.97;;;2.40;;
30133;SDS011;16946;49.984;10.672;2022-12-29T01:23:07;3.30;;;3.00;;
30133;SDS011;16946;49.984;10.672;2022-12-29T01:23:37;3.07;;;2.77;;
30133;SDS011;16946;49.984;10.672;2022-12-29T01:24:08;2.33;;;2.13;;
30133;SDS011;16946;49.984;10.672;2022-12-29T01:24:38;2.93;;;2.33;;
30133;SDS011;16946;49.984;10.672;2022-12-29T01:25:09;5.07;;;2.50;;
30133;SDS011;16946;49.984;10.672;2022-12-29T01:25:40;2.83;;;2.30;;
30133;SDS011;16946;49.984;10.672;2022-12-29T01:26:10;2.87;;;2.40;;
30133;SDS011;16946;49.984;10.672;2022-12-29T01:26:42;3.53;;;2.22;;
30133;SDS011;16946;49.984;10.672;2022-12-29T01:27:13;2.60;;;2.40;;
30133;SDS011;16946;49.984;10.672;2022-12-29T01:27:44;3.27;;;2.20;;
30133;SDS011;16946;49.984;10.672;2022-12-29T01:28:14;2.57;;;2.37;;
30133;SDS011;16946;49.984;10.672;2022-12-29T01:28:45;4.17;;;2.30;;
30133;SDS011;16946;49.984;10.672;2022-12-29T01:29:16;2.75;;;2.47;;
30133;SDS011;16946;49.984;10.672;2022-12-29T01:29:47;4.87;;;2.43;;
30133;SDS011;16946;49.984;10.672;2022-12-29T01:30:17;4.00;;;3.00;;
30133;SDS011;16946;49.984;10.672;2022-12-29T01:30:48;2.93;;;2.63;;
30133;SDS011;16946;49.984;10.672;2022-12-29T01:31:18;3.60;;;2.10;;
30133;SDS011;16946;49.984;10.672;2022-12-29T01:31:49;3.30;;;2.40;;
30133;SDS011;16946;49.984;10.672;2022-12-29T01:32:19;2.67;;;2.30;;
30133;SDS011;16946;49.984;10.672;2022-12-29T01:32:50;3.23;;;2.40;;
30133;SDS011;16946;49.984;10.672;2022-12-29T01:33:20;3.00;;;2.17;;
30133;SDS011;16946;49.984;10.672;2022-12-29T01:33:51;2.53;;;2.30;;
30133;SDS011;16946;49.984;10.672;2022-12-29T01:34:21;2.57;;;2.37;;
30133;SDS011;16946;49.984;10.672;2022-12-29T01:34:52;3.27;;;2.30;;
30133;SDS011;16946;49.984;10.672;2022-12-29T01:35:22;2.90;;;2.50;;
30133;SDS011;16946;49.984;10.672;2022-12-29T01:35:53;2.70;;;2.40;;
30133;SDS011;16946;49.984;10.672;2022-12-29T01:36:23;3.73;;;2.10;;
30133;SDS011;16946;49.984;10.672;2022-12-29T01:36:54;2.80;;;2.50;;
30133;SDS011;16946;49.984;10.672;2022-12-29T01:37:25;4.27;;;2.30;;
30133;SDS011;16946;49.984;10.672;2022-12-29T01:37:55;3.47;;;2.43;;
30133;SDS011;16946;49.984;10.672;2022-12-29T01:38:26;2.50;;;2.10;;
30133;SDS011;16946;49.984;10.672;2022-12-29T01:38:56;2.53;;;2.20;;
30133;SDS011;16946;49.984;10.672;2022-12-29T01:39:27;2.80;;;2.17;;
30133;SDS011;16946;49.984;10.672;2022-12-29T01:39:57;2.40;;;2.17;;
30133;SDS011;16946;49.984;10.672;2022-12-29T01:40:28;2.97;;;2.13;;
30133;SDS011;16946;49.984;10.672;2022-12-29T01:40:58;2.97;;;2.10;;
30133;SDS011;16946;49.984;10.672;2022-12-29T01:41:29;3.33;;;2.20;;
30133;SDS011;16946;49.984;10.672;2022-12-29T01:42:01;3.40;;;2.13;;
30133;SDS011;16946;49.984;10.672;2022-12-29T01:42:31;4.23;;;2.03;;
30133;SDS011;16946;49.984;10.672;2022-12-29T01:43:03;4.03;;;2.23;;
30133;SDS011;16946;49.984;10.672;2022-12-29T01:45:13;3.35;;;2.63;;
30133;SDS011;16946;49.984;10.672;2022-12-29T01:45:51;2.65;;;2.30;;
30133;SDS011;16946;49.984;10.672;2022-12-29T01:46:59;4.75;;;2.60;;
30133;SDS011;16946;49.984;10.672;2022-12-29T01:47:37;2.93;;;2.57;;
30133;SDS011;16946;49.984;10.672;2022-12-29T01:48:11;2.58;;;2.13;;
30133;SDS011;16946;49.984;10.672;2022-12-29T01:48:43;2.30;;;2.10;;
30133;SDS011;16946;49.984;10.672;2022-12-29T01:49:18;2.63;;;2.20;;
30133;SDS011;16946;49.984;10.672;2022-12-29T01:49:55;3.55;;;2.58;;
30133;SDS011;16946;49.984;10.672;2022-12-29T01:51:01;3.10;;;2.10;;
30133;SDS011;16946;49.984;10.672;2022-12-29T01:51:32;3.00;;;2.20;;
30133;SDS011;16946;49.984;10.672;2022-12-29T01:52:07;2.65;;;1.90;;
30133;SDS011;16946;49.984;10.672;2022-12-29T01:52:39;3.00;;;2.17;;
30133;SDS011;16946;49.984;10.672;2022-12-29T01:53:25;2.35;;;2.03;;
30133;SDS011;16946;49.984;10.672;2022-12-29T01:54:01;2.35;;;1.83;;
30133;SDS011;16946;49.984;10.672;2022-12-29T01:55:12;2.50;;;2.10;;
30133;SDS011;16946;49.984;10.672;2022-12-29T01:55:46;2.92;;;2.00;;
30133;SDS011;16946;49.984;10.672;2022-12-29T01:56:19;3.85;;;2.00;;
30133;SDS011;16946;49.984;10.672;2022-12-29T01:56:51;4.15;;;2.20;;
30133;SDS011;16946;49.984;10.672;2022-12-29T01:57:24;2.60;;;2.00;;
30133;SDS011;16946;49.984;10.672;2022-12-29T01:58:00;3.22;;;2.22;;
30133;SDS011;16946;49.984;10.672;2022-12-29T01:58:34;2.15;;;1.95;;
30133;SDS011;16946;49.984;10.672;2022-12-29T01:59:11;3.42;;;2.10;;
30133;SDS011;16946;49.984;10.672;2022-12-29T01:59:46;3.20;;;2.10;;
30133;SDS011;16946;49.984;10.672;2022-12-29T02:00:22;5.40;;;2.30;;
30133;SDS011;16946;49.984;10.672;2022-12-29T02:00:53;4.07;;;2.07;;
30133;SDS011;16946;49.984;10.672;2022-12-29T02:01:24;2.15;;;1.92;;
30133;SDS011;16946;49.984;10.672;2022-12-29T02:01:54;3.77;;;2.00;;
30133;SDS011;16946;49.984;10.672;2022-12-29T02:02:25;2.70;;;2.30;;
30133;SDS011;16946;49.984;10.672;2022-12-29T02:02:56;2.57;;;2.00;;
30133;SDS011;16946;49.984;10.672;2022-12-29T02:03:27;2.70;;;1.97;;
30133;SDS011;16946;49.984;10.672;2022-12-29T02:04:01;2.55;;;2.00;;
30133;SDS011;16946;49.984;10.672;2022-12-29T02:04:33;2.88;;;2.10;;
30133;SDS011;16946;49.984;10.672;2022-12-29T02:05:07;3.28;;;2.10;;
30133;SDS011;16946;49.984;10.672;2022-12-29T02:05:55;2.10;;;1.90;;
30133;SDS011;16946;49.984;10.672;2022-12-29T02:06:46;2.05;;;1.83;;
30133;SDS011;16946;49.984;10.672;2022-12-29T02:07:21;2.25;;;2.05;;
30133;SDS011;16946;49.984;10.672;2022-12-29T02:07:54;2.75;;;2.13;;
30133;SDS011;16946;49.984;10.672;2022-12-29T02:08:26;2.37;;;2.00;;
30133;SDS011;16946;49.984;10.672;2022-12-29T02:08:58;2.22;;;2.00;;
30133;SDS011;16946;49.984;10.672;2022-12-29T02:09:30;2.95;;;1.75;;
30133;SDS011;16946;49.984;10.672;2022-12-29T02:10:01;2.40;;;2.00;;
30133;SDS011;16946;49.984;10.672;2022-12-29T02:10:32;2.40;;;1.90;;
30133;SDS011;16946;49.984;10.672;2022-12-29T02:11:09;6.93;;;2.22;;
30133;SDS011;16946;49.984;10.672;2022-12-29T02:11:39;2.67;;;2.17;;
30133;SDS011;16946;49.984;10.672;2022-12-29T02:12:10;2.90;;;2.27;;
30133;SDS011;16946;49.984;10.672;2022-12-29T02:12:41;2.50;;;2.28;;
30133;SDS011;16946;49.984;10.672;2022-12-29T02:13:14;2.27;;;1.90;;
30133;SDS011;16946;49.984;10.672;2022-12-29T02:13:47;3.60;;;2.10;;
30133;SDS011;16946;49.984;10.672;2022-12-29T02:14:17;2.33;;;1.93;;
30133;SDS011;16946;49.984;10.672;2022-12-29T02:14:48;2.20;;;2.00;;
30133;SDS011;16946;49.984;10.672;2022-12-29T02:15:31;2.13;;;1.92;;
30133;SDS011;16946;49.984;10.672;2022-12-29T02:18:02;3.00;;;1.95;;
30133;SDS011;16946;49.984;10.672;2022-12-29T02:18:53;2.67;;;1.70;;
30133;SDS011;16946;49.984;10.672;2022-12-29T02:22:18;3.95;;;1.80;;
30133;SDS011;16946;49.984;10.672;2022-12-29T02:24:09;3.08;;;1.90;;
30133;SDS011;16946;49.984;10.672;2022-12-29T02:26:15;3.03;;;2.03;;
30133;SDS011;16946;49.984;10.672;2022-12-29T02:27:34;2.97;;;1.88;;
30133;SDS011;16946;49.984;10.672;2022-12-29T02:28:30;2.30;;;1.88;;
30133;SDS011;16946;49.984;10.672;2022-12-29T02:29:34;3.05;;;2.20;;
30133;SDS011;16946;49.984;10.672;2022-12-29T02:34:07;3.05;;;2.10;;
30133;SDS011;16946;49.984;10.672;2022-12-29T02:34:50;1.83;;;1.70;;
30133;SDS011;16946;49.984;10.672;2022-12-29T02:35:37;2.65;;;1.90;;
30133;SDS011;16946;49.984;10.672;2022-12-29T02:37:04;2.45;;;1.92;;
30133;SDS011;16946;49.984;10.672;2022-12-29T02:37:45;2.80;;;1.90;;
30133;SDS011;16946;49.984;10.672;2022-12-29T02:38:45;2.10;;;1.60;;
30133;SDS011;16946;49.984;10.672;2022-12-29T02:39:32;2.08;;;1.88;;
30133;SDS011;16946;49.984;10.672;2022-12-29T02:40:24;3.15;;;2.10;;
30133;SDS011;16946;49.984;10.672;2022-12-29T02:42:09;2.00;;;1.70;;
30133;SDS011;16946;49.984;10.672;2022-12-29T02:43:56;1.85;;;1.60;;
30133;SDS011;16946;49.984;10.672;2022-12-29T02:44:47;2.28;;;1.75;;
30133;SDS011;16946;49.984;10.672;2022-12-29T02:45:42;3.22;;;1.92;;
30133;SDS011;16946;49.984;10.672;2022-12-29T02:47:04;1.98;;;1.70;;
30133;SDS011;16946;49.984;10.672;2022-12-29T02:47:55;2.42;;;1.80;;
30133;SDS011;16946;49.984;10.672;2022-12-29T02:48:51;2.03;;;1.77;;
30133;SDS011;16946;49.984;10.672;2022-12-29T02:50:26;2.65;;;1.88;;
30133;SDS011;16946;49.984;10.672;2022-12-29T02:51:06;2.53;;;1.95;;
30133;SDS011;16946;49.984;10.672;2022-12-29T02:51:51;2.97;;;1.58;;
30133;SDS011;16946;49.984;10.672;2022-12-29T02:52:32;2.38;;;2.00;;
30133;SDS011;16946;49.984;10.672;2022-12-29T02:53:14;3.40;;;1.85;;
30133;SDS011;16946;49.984;10.672;2022-12-29T02:53:47;3.00;;;1.90;;
30133;SDS011;16946;49.984;10.672;2022-12-29T02:54:37;2.60;;;2.00;;
30133;SDS011;16946;49.984;10.672;2022-12-29T02:55:11;2.50;;;1.80;;
30133;SDS011;16946;49.984;10.672;2022-12-29T02:55:48;2.67;;;1.83;;
30133;SDS011;16946;49.984;10.672;2022-12-29T02:56:20;1.77;;;1.50;;
30133;SDS011;16946;49.984;10.672;2022-12-29T02:56:51;3.53;;;1.80;;
30133;SDS011;16946;49.984;10.672;2022-12-29T02:58:51;1.95;;;1.60;;
30133;SDS011;16946;49.984;10.672;2022-12-29T02:59:22;3.73;;;2.20;;
30133;SDS011;16946;49.984;10.672;2022-12-29T02:59:54;4.40;;;1.90;;
30133;SDS011;16946;49.984;10.672;2022-12-29T03:00:29;2.10;;;1.83;;
30133;SDS011;16946;49.984;10.672;2022-12-29T03:01:21;2.07;;;1.80;;
30133;SDS011;16946;49.984;10.672;2022-12-29T03:06:48;1.73;;;1.60;;
30133;SDS011;16946;49.984;10.672;2022-12-29T03:08:23;2.30;;;1.75;;
30133;SDS011;16946;49.984;10.672;2022-12-29T03:09:43;2.65;;;1.70;;
30133;SDS011;16946;49.984;10.672;2022-12-29T03:11:14;4.15;;;1.65;;
30133;SDS011;16946;49.984;10.672;2022-12-29T03:14:26;4.18;;;1.70;;
30133;SDS011;16946;49.984;10.672;2022-12-29T03:15:21;2.78;;;1.65;;
30133;SDS011;16946;49.984;10.672;2022-12-29T03:16:24;5.38;;;2.28;;
30133;SDS011;16946;49.984;10.672;2022-12-29T03:17:18;3.65;;;1.95;;
30133;SDS011;16946;49.984;10.672;2022-12-29T03:18:04;3.50;;;1.77;;
30133;SDS011;16946;49.984;10.672;2022-12-29T03:18:47;2.90;;;1.85;;
30133;SDS011;16946;49.984;10.672;2022-12-29T03:19:28;2.30;;;1.60;;
30133;SDS011;16946;49.984;10.672;2022-12-29T03:20:06;3.90;;;1.73;;
30133;SDS011;16946;49.984;10.672;2022-12-29T03:20:51;3.65;;;1.85;;
30133;SDS011;16946;49.984;10.672;2022-12-29T03:21:35;4.65;;;1.70;;
30133;SDS011;16946;49.984;10.672;2022-12-29T03:22:30;1.77;;;1.60;;
30133;SDS011;16946;49.984;10.672;2022-12-29T03:23:05;3.25;;;1.70;;
30133;SDS011;16946;49.984;10.672;2022-12-29T03:23:37;4.97;;;1.73;;
30133;SDS011;16946;49.984;10.672;2022-12-29T03:24:11;4.65;;;1.98;;
30133;SDS011;16946;49.984;10.672;2022-12-29T03:24:43;3.15;;;1.85;;
30133;SDS011;16946;49.984;10.672;2022-12-29T03:25:22;3.60;;;1.67;;
30133;SDS011;16946;49.984;10.672;2022-12-29T03:25:56;2.03;;;1.63;;
30133;SDS011;16946;49.984;10.672;2022-12-29T03:26:31;4.13;;;1.55;;
30133;SDS011;16946;49.984;10.672;2022-12-29T03:27:02;2.87;;;1.50;;
30133;SDS011;16946;49.984;10.672;2022-12-29T03:27:38;2.00;;;1.42;;
30133;SDS011;16946;49.984;10.672;2022-12-29T03:28:28;3.25;;;1.50;;
30133;SDS011;16946;49.984;10.672;2022-12-29T03:29:04;3.83;;;1.95;;
30133;SDS011;16946;49.984;10.672;2022-12-29T03:29:41;2.92;;;1.75;;
30133;SDS011;16946;49.984;10.672;2022-12-29T03:30:22;3.72;;;1.80;;
30133;SDS011;16946;49.984;10.672;2022-12-29T03:30:53;4.85;;;1.42;;
30133;SDS011;16946;49.984;10.672;2022-12-29T03:31:25;1.83;;;1.30;;
30133;SDS011;16946;49.984;10.672;2022-12-29T03:31:56;2.43;;;1.47;;
30133;SDS011;16946;49.984;10.672;2022-12-29T03:32:31;3.17;;;1.20;;
30133;SDS011;16946;49.984;10.672;2022-12-29T03:33:12;2.80;;;1.70;;
30133;SDS011;16946;49.984;10.672;2022-12-29T03:33:46;2.70;;;1.40;;
30133;SDS011;16946;49.984;10.672;2022-12-29T03:34:19;3.70;;;1.92;;
30133;SDS011;16946;49.984;10.672;2022-12-29T03:34:50;4.05;;;1.80;;
30133;SDS011;16946;49.984;10.672;2022-12-29T03:35:25;2.92;;;1.70;;
30133;SDS011;16946;49.984;10.672;2022-12-29T03:36:03;3.45;;;1.70;;
30133;SDS011;16946;49.984;10.672;2022-12-29T03:36:42;4.30;;;1.67;;
30133;SDS011;16946;49.984;10.672;2022-12-29T03:37:18;3.40;;;1.58;;
30133;SDS011;16946;49.984;10.672;2022-12-29T03:38:05;2.63;;;1.60;;
30133;SDS011;16946;49.984;10.672;2022-12-29T03:38:49;2.25;;;1.50;;
30133;SDS011;16946;49.984;10.672;2022-12-29T03:39:25;2.25;;;1.70;;
30133;SDS011;16946;49.984;10.672;2022-12-29T03:39:56;2.75;;;1.70;;
30133;SDS011;16946;49.984;10.672;2022-12-29T03:40:27;2.50;;;1.80;;
30133;SDS011;16946;49.984;10.672;2022-12-29T03:41:03;2.20;;;1.58;;
30133;SDS011;16946;49.984;10.672;2022-12-29T03:41:37;2.78;;;1.98;;
30133;SDS011;16946;49.984;10.672;2022-12-29T03:42:16;5.50;;;1.70;;
30133;SDS011;16946;49.984;10.672;2022-12-29T03:42:49;2.28;;;1.75;;
30133;SDS011;16946;49.984;10.672;2022-12-29T03:43:22;4.97;;;1.77;;
30133;SDS011;16946;49.984;10.672;2022-12-29T03:43:53;3.67;;;1.93;;
30133;SDS011;16946;49.984;10.672;2022-12-29T03:44:31;3.70;;;1.50;;
30133;SDS011;16946;49.984;10.672;2022-12-29T03:45:03;4.30;;;2.03;;
30133;SDS011;16946;49.984;10.672;2022-12-29T03:45:36;2.92;;;1.70;;
30133;SDS011;16946;49.984;10.672;2022-12-29T03:46:06;2.40;;;1.57;;
30133;SDS011;16946;49.984;10.672;2022-12-29T03:46:37;3.50;;;2.03;;
30133;SDS011;16946;49.984;10.672;2022-12-29T03:47:09;2.80;;;1.87;;
30133;SDS011;16946;49.984;10.672;2022-12-29T03:47:40;2.03;;;1.48;;
30133;SDS011;16946;49.984;10.672;2022-12-29T03:48:11;3.50;;;1.60;;
30133;SDS011;16946;49.984;10.672;2022-12-29T03:48:41;6.07;;;2.00;;
30133;SDS011;16946;49.984;10.672;2022-12-29T03:49:12;3.03;;;1.50;;
30133;SDS011;16946;49.984;10.672;2022-12-29T03:49:42;9.17;;;1.70;;
30133;SDS011;16946;49.984;10.672;2022-12-29T03:50:13;3.73;;;1.60;;
30133;SDS011;16946;49.984;10.672;2022-12-29T03:50:44;4.23;;;1.70;;
30133;SDS011;16946;49.984;10.672;2022-12-29T03:51:14;3.83;;;1.80;;
30133;SDS011;16946;49.984;10.672;2022-12-29T03:51:45;2.50;;;1.47;;
30133;SDS011;16946;49.984;10.672;2022-12-29T03:52:15;3.90;;;1.90;;
30133;SDS011;16946;49.984;10.672;2022-12-29T03:52:46;5.13;;;1.60;;
30133;SDS011;16946;49.984;10.672;2022-12-29T03:53:17;3.53;;;1.63;;
30133;SDS011;16946;49.984;10.672;2022-12-29T03:53:48;2.80;;;1.60;;
30133;SDS011;16946;49.984;10.672;2022-12-29T03:54:18;4.50;;;2.17;;
30133;SDS011;16946;49.984;10.672;2022-12-29T03:54:49;2.73;;;1.83;;
30133;SDS011;16946;49.984;10.672;2022-12-29T03:55:19;4.07;;;1.50;;
30133;SDS011;16946;49.984;10.672;2022-12-29T03:55:50;3.50;;;1.70;;
30133;SDS011;16946;49.984;10.672;2022-12-29T03:56:21;4.03;;;2.20;;
30133;SDS011;16946;49.984;10.672;2022-12-29T03:56:51;3.17;;;1.80;;
30133;SDS011;16946;49.984;10.672;2022-12-29T03:57:22;5.60;;;1.63;;
30133;SDS011;16946;49.984;10.672;2022-12-29T03:57:52;2.17;;;1.60;;
30133;SDS011;16946;49.984;10.672;2022-12-29T03:58:23;2.20;;;1.70;;
30133;SDS011;16946;49.984;10.672;2022-12-29T03:58:53;3.57;;;1.90;;
30133;SDS011;16946;49.984;10.672;2022-12-29T03:59:24;1.93;;;1.50;;
30133;SDS011;16946;49.984;10.672;2022-12-29T03:59:54;3.20;;;1.70;;
30133;SDS011;16946;49.984;10.672;2022-12-29T04:00:25;2.73;;;1.60;;
30133;SDS011;16946;49.984;10.672;2022-12-29T04:00:56;3.10;;;1.50;;
30133;SDS011;16946;49.984;10.672;2022-12-29T04:01:27;3.05;;;1.88;;
30133;SDS011;16946;49.984;10.672;2022-12-29T04:01:57;1.97;;;1.50;;
30133;SDS011;16946;49.984;10.672;2022-12-29T04:02:28;3.20;;;1.53;;
30133;SDS011;16946;49.984;10.672;2022-12-29T04:02:58;3.10;;;1.70;;
30133;SDS011;16946;49.984;10.672;2022-12-29T04:03:29;4.77;;;2.17;;
30133;SDS011;16946;49.984;10.672;2022-12-29T04:03:59;3.50;;;1.83;;